Time;durP1;ratioP1;P1;durP2;ratioP2;P2;SDS_P1;SDS_P2;PMS_P1;PMS_P2;Temp;Humidity;BMP_temperature;BMP_pressure;BME280_temperature;BME280_humidity;BME280_pressure;Samples;Min_cycle;Max_cycle;Signal;HPM_P1;HPM_P2
2021/10/09 00:01:43;;;;;;;0.40;0.30;;;;;;;6.75;94.04;102786.28;5076177;28;20441;-70
2021/10/09 00:04:11;;;;;;;0.40;0.27;;;;;;;6.82;93.68;102780.88;5076121;28;20453;-69
2021/10/09 00:06:37;;;;;;;0.40;0.30;;;;;;;6.79;93.64;102784.00;5075776;28;20938;-69
2021/10/09 00:09:04;;;;;;;0.40;0.30;;;;;;;6.77;94.39;102777.97;5075958;28;20464;-69
2021/10/09 00:11:36;;;;;;;0.40;0.30;;;;;;;6.71;94.36;102785.09;5075860;28;20484;-69
2021/10/09 00:14:03;;;;;;;3.87;3.60;;;;;;;6.72;94.08;102786.72;5075664;28;20422;-69
2021/10/09 00:16:30;;;;;;;0.83;0.83;;;;;;;6.76;94.13;102782.56;5075431;28;20437;-69
2021/10/09 00:18:56;;;;;;;0.40;0.20;;;;;;;6.70;94.30;102783.44;5075834;28;20489;-69
2021/10/09 00:21:24;;;;;;;0.40;0.30;;;;;;;6.64;94.00;102778.94;5075799;28;20449;-69
2021/10/09 00:23:51;;;;;;;0.40;0.30;;;;;;;6.53;93.46;102779.66;5075465;28;20457;-70
2021/10/09 00:26:18;;;;;;;0.40;0.30;;;;;;;6.57;93.32;102779.00;5075676;28;20445;-70
2021/10/09 00:28:44;;;;;;;0.40;0.30;;;;;;;6.56;91.94;102782.72;5075588;28;20468;-70
2021/10/09 00:31:10;;;;;;;0.40;0.30;;;;;;;6.51;92.62;102779.06;5075334;28;20817;-69
2021/10/09 00:33:37;;;;;;;0.40;0.30;;;;;;;6.39;93.16;102780.81;5075208;28;21043;-69
2021/10/09 00:36:04;;;;;;;0.63;0.63;;;;;;;6.26;92.97;102787.09;5075537;28;20454;-69
2021/10/09 00:38:31;;;;;;;2.40;2.20;;;;;;;6.21;92.77;102782.38;5075419;28;20487;-69
2021/10/09 00:40:58;;;;;;;0.40;0.20;;;;;;;6.25;92.63;102783.59;5075424;28;20445;-69
2021/10/09 00:43:24;;;;;;;0.40;0.30;;;;;;;6.25;92.12;102785.47;5075098;28;20940;-69
2021/10/09 00:45:52;;;;;;;0.40;0.30;;;;;;;6.17;93.58;102781.16;5075362;28;20438;-69
2021/10/09 00:48:19;;;;;;;0.90;0.90;;;;;;;6.17;94.36;102783.84;5075213;28;20445;-69
2021/10/09 00:50:45;;;;;;;0.40;0.30;;;;;;;6.39;93.77;102780.81;5075305;28;20471;-69
2021/10/09 00:53:13;;;;;;;3.13;2.20;;;;;;;6.45;93.64;102779.91;5075133;28;20489;-69
2021/10/09 00:55:42;;;;;;;0.40;0.30;;;;;;;6.42;94.72;102780.34;5075138;28;20486;-69
2021/10/09 00:58:09;;;;;;;0.40;0.30;;;;;;;6.45;94.95;102785.31;5075071;28;20445;-69
2021/10/09 01:00:39;;;;;;;0.40;0.30;;;;;;;6.44;95.43;102786.34;5074750;28;20441;-69
2021/10/09 01:03:07;;;;;;;0.40;0.30;;;;;;;6.43;96.21;102782.84;5075100;28;20426;-69
2021/10/09 01:05:35;;;;;;;0.40;0.20;;;;;;;6.44;96.25;102786.34;5074959;28;20507;-69
2021/10/09 01:08:02;;;;;;;2.30;2.20;;;;;;;6.46;96.74;102781.56;5074702;28;20453;-69
2021/10/09 01:10:28;;;;;;;0.40;0.30;;;;;;;6.51;96.20;102773.69;5074439;28;21009;-69
2021/10/09 01:12:57;;;;;;;0.50;0.50;;;;;;;6.53;96.66;102771.56;5074724;28;20485;-69
2021/10/09 01:15:29;;;;;;;0.40;0.30;;;;;;;6.57;96.77;102783.56;5074706;28;20475;-69
2021/10/09 01:17:55;;;;;;;0.40;0.30;;;;;;;6.51;97.21;102779.06;5074672;28;20480;-69
2021/10/09 01:20:23;;;;;;;0.40;0.30;;;;;;;6.59;96.99;102776.06;5074545;28;20473;-69
2021/10/09 01:22:49;;;;;;;0.40;0.30;;;;;;;6.60;96.38;102779.59;5074414;28;20453;-69
2021/10/09 01:25:16;;;;;;;0.40;0.30;;;;;;;6.57;94.89;102778.16;5074469;28;20437;-69
2021/10/09 01:27:43;;;;;;;0.53;0.53;;;;;;;6.53;93.75;102779.66;5074428;28;20445;-69
2021/10/09 01:30:10;;;;;;;0.40;0.30;;;;;;;6.57;94.49;102772.78;5074371;28;20466;-69
2021/10/09 01:32:37;;;;;;;0.40;0.30;;;;;;;6.57;95.52;102779.00;5073602;28;21002;-69
2021/10/09 01:35:05;;;;;;;6.60;4.00;;;;;;;6.55;95.86;102774.84;5074583;28;20441;-69
2021/10/09 01:37:38;;;;;;;0.93;0.93;;;;;;;6.50;94.99;102778.22;5074279;28;20865;-69
2021/10/09 01:40:06;;;;;;;0.40;0.20;;;;;;;6.56;94.63;102771.16;5074182;28;20464;-69
2021/10/09 01:42:33;;;;;;;0.40;0.30;;;;;;;6.54;95.19;102770.53;5074231;28;20438;-69
2021/10/09 01:44:59;;;;;;;0.40;0.20;;;;;;;6.45;95.18;102767.28;5073874;28;20472;-69
2021/10/09 01:47:26;;;;;;;0.40;0.30;;;;;;;6.49;95.18;102773.06;5074107;28;20437;-69
2021/10/09 01:49:52;;;;;;;0.40;0.30;;;;;;;6.41;95.44;102770.63;5074080;28;20465;-69
2021/10/09 01:52:18;;;;;;;0.40;0.30;;;;;;;6.41;96.38;102776.00;5073637;28;21001;-69
2021/10/09 01:54:46;;;;;;;0.40;0.27;;;;;;;6.49;96.12;102770.38;5074021;28;20444;-69
2021/10/09 01:57:12;;;;;;;0.40;0.20;;;;;;;6.47;96.53;102772.47;5073905;28;20449;-69
2021/10/09 01:59:39;;;;;;;0.40;0.30;;;;;;;6.59;95.93;102778.75;5073847;28;20465;-69
2021/10/09 02:02:06;;;;;;;0.40;0.30;;;;;;;6.54;96.20;102774.03;5073502;28;20441;-69
2021/10/09 02:04:33;;;;;;;15.87;2.67;;;;;;;6.50;96.07;102774.69;5073809;28;20445;-69
2021/10/09 02:07:00;;;;;;;1.50;1.40;;;;;;;6.47;96.40;102772.47;5073759;28;20449;-69
2021/10/09 02:09:26;;;;;;;0.40;0.30;;;;;;;6.47;96.33;102777.84;5073671;28;20468;-70
2021/10/09 02:11:54;;;;;;;0.40;0.30;;;;;;;6.46;96.23;102768.94;5073688;28;20449;-69
2021/10/09 02:14:24;;;;;;;0.40;0.30;;;;;;;6.43;96.75;102782.03;5073894;28;20441;-69
2021/10/09 02:25:14;;;;;;;0.40;0.30;;;;;;;6.29;94.45;102779.44;5073579;28;20405;-70
2021/10/09 02:27:42;;;;;;;0.40;0.20;;;;;;;6.36;94.70;102781.22;5073170;28;20935;-69
2021/10/09 02:30:09;;;;;;;0.50;0.47;;;;;;;6.38;94.02;102785.38;5073402;28;20469;-68
2021/10/09 02:32:36;;;;;;;0.67;0.67;;;;;;;6.42;94.00;102780.34;5073327;28;20531;-70
2021/10/09 02:35:03;;;;;;;0.40;0.30;;;;;;;6.42;94.86;102778.50;5073365;28;20819;-69
2021/10/09 02:37:29;;;;;;;0.40;0.30;;;;;;;6.36;94.90;102786.63;5072896;28;20472;-70
2021/10/09 02:39:56;;;;;;;0.40;0.30;;;;;;;6.31;94.60;102780.00;5073277;28;20464;-70
2021/10/09 02:42:22;;;;;;;0.40;0.30;;;;;;;6.30;94.58;102774.88;5073336;28;20442;-70
2021/10/09 02:44:50;;;;;;;0.40;0.30;;;;;;;6.38;94.38;102781.84;5072973;28;20845;-70
2021/10/09 02:47:16;;;;;;;0.40;0.30;;;;;;;6.43;94.25;102784.72;5072950;28;21068;-70
2021/10/09 02:49:42;;;;;;;0.40;0.30;;;;;;;6.47;95.19;102789.44;5073191;28;20461;-70
2021/10/09 02:52:09;;;;;;;0.40;0.30;;;;;;;6.58;95.36;102787.88;5073092;28;20445;-70
2021/10/09 02:54:35;;;;;;;3.13;2.83;;;;;;;6.53;95.93;102780.47;5073160;28;20824;-70
2021/10/09 02:57:02;;;;;;;0.40;0.30;;;;;;;6.50;96.58;102782.78;5073174;28;20441;-70
2021/10/09 02:59:28;;;;;;;0.40;0.20;;;;;;;6.51;96.52;102785.28;5073051;28;20466;-70
2021/10/09 03:01:56;;;;;;;1.90;1.80;;;;;;;6.49;96.58;102783.81;5073080;28;20450;-70
2021/10/09 03:04:22;;;;;;;0.40;0.30;;;;;;;6.47;96.61;102794.00;5073051;28;20437;-70
2021/10/09 03:06:49;;;;;;;0.40;0.30;;;;;;;6.44;96.40;102783.66;5073061;28;20441;-70
2021/10/09 03:09:15;;;;;;;0.40;0.20;;;;;;;6.37;97.23;102782.88;5072904;28;20482;-70
2021/10/09 03:11:42;;;;;;;0.40;0.30;;;;;;;6.30;97.63;102778.38;5072714;28;20441;-70
2021/10/09 03:14:08;;;;;;;2.67;2.50;;;;;;;6.40;96.87;102785.97;5072912;28;20484;-70
2021/10/09 03:16:34;;;;;;;0.40;0.30;;;;;;;6.44;96.77;102784.47;5072930;28;20464;-70
2021/10/09 03:19:02;;;;;;;2.40;2.23;;;;;;;6.37;95.75;102788.25;5072862;28;20457;-70
2021/10/09 03:21:29;;;;;;;0.40;0.30;;;;;;;6.36;94.69;102792.00;5072884;28;20441;-70
2021/10/09 03:23:55;;;;;;;0.40;0.30;;;;;;;6.28;94.20;102793.06;5072565;28;20449;-69
2021/10/09 03:26:22;;;;;;;0.87;0.83;;;;;;;6.32;93.26;102792.44;5072827;28;20445;-69
2021/10/09 03:28:48;;;;;;;0.40;0.27;;;;;;;6.28;92.48;102791.22;5072751;28;20461;-70
2021/10/09 03:31:15;;;;;;;0.40;0.30;;;;;;;6.27;92.83;102797.63;5072754;28;20445;-69
2021/10/09 03:33:41;;;;;;;0.40;0.30;;;;;;;6.24;92.27;102798.09;5072702;28;20485;-70
2021/10/09 03:36:09;;;;;;;0.40;0.30;;;;;;;6.19;92.55;102797.91;5072737;28;20791;-70
2021/10/09 03:38:37;;;;;;;0.40;0.27;;;;;;;6.14;92.48;102796.91;5072715;28;20468;-70
2021/10/09 03:41:07;;;;;;;0.40;0.20;;;;;;;6.07;91.96;102803.16;5072708;28;20535;-70
2021/10/09 03:43:34;;;;;;;0.40;0.30;;;;;;;6.01;91.79;102806.69;5072724;28;20428;-69
2021/10/09 03:46:04;;;;;;;0.40;0.30;;;;;;;5.98;92.05;102814.41;5072717;28;20457;-70
2021/10/09 03:48:40;;;;;;;2.00;1.90;;;;;;;6.06;92.39;102806.03;5072830;28;20465;-70
2021/10/09 03:53:52;;;;;;;1.37;1.27;;;;;;;6.01;94.68;102800.50;5075993;28;20981;-70
2021/10/09 03:56:18;;;;;;;0.40;0.30;;;;;;;5.93;95.52;102798.91;5076020;28;20456;-70
2021/10/09 03:58:44;;;;;;;3.40;2.40;;;;;;;5.84;95.80;102794.75;5076181;28;20468;-70
2021/10/09 04:01:11;;;;;;;0.40;0.37;;;;;;;5.91;96.05;102794.72;5075840;28;20861;-70
2021/10/09 04:03:37;;;;;;;0.50;0.50;;;;;;;5.92;95.59;102791.84;5075784;28;20437;-69
2021/10/09 04:06:04;;;;;;;0.40;0.30;;;;;;;5.86;96.77;102798.06;5076107;28;20452;-69
2021/10/09 04:08:30;;;;;;;0.40;0.27;;;;;;;5.82;96.59;102803.03;5075948;28;20468;-69
2021/10/09 04:10:58;;;;;;;0.40;0.27;;;;;;;5.86;96.57;102803.44;5075641;28;20445;-69
2021/10/09 04:13:24;;;;;;;0.40;0.27;;;;;;;5.94;96.02;102795.16;5076150;28;20493;-69
2021/10/09 04:15:51;;;;;;;0.40;0.20;;;;;;;5.96;96.34;102797.63;5075926;28;20440;-70
2021/10/09 04:18:17;;;;;;;0.50;0.50;;;;;;;5.87;96.23;102805.09;5075751;28;20441;-70
2021/10/09 04:20:43;;;;;;;0.40;0.30;;;;;;;5.85;95.45;102798.28;5075826;28;20453;-70
2021/10/09 04:23:10;;;;;;;0.40;0.30;;;;;;;5.81;93.58;102801.41;5075672;28;20450;-70
2021/10/09 04:25:36;;;;;;;0.40;0.30;;;;;;;5.75;94.12;102802.25;5075705;28;20437;-70
2021/10/09 04:28:04;;;;;;;0.40;0.27;;;;;;;5.83;92.46;102806.56;5075680;28;20441;-69
2021/10/09 04:30:31;;;;;;;1.33;1.23;;;;;;;5.75;92.59;102801.41;5075532;28;20457;-69
2021/10/09 04:32:59;;;;;;;0.40;0.20;;;;;;;5.73;92.77;102804.31;5075489;28;20496;-69
2021/10/09 04:35:26;;;;;;;0.40;0.30;;;;;;;5.77;93.41;102810.09;5075465;28;20988;-69
2021/10/09 04:37:52;;;;;;;0.40;0.27;;;;;;;5.78;93.86;102799.13;5075142;28;20873;-69
2021/10/09 04:40:19;;;;;;;0.40;0.30;;;;;;;5.66;93.94;102798.13;5075368;28;20468;-70
2021/10/09 04:42:45;;;;;;;0.40;0.20;;;;;;;5.69;94.05;102805.78;5075298;28;20437;-70
2021/10/09 04:45:13;;;;;;;0.40;0.30;;;;;;;5.67;95.26;102790.94;5075397;28;20441;-70
2021/10/09 04:47:39;;;;;;;0.40;0.20;;;;;;;5.73;94.64;102793.56;5075562;28;20448;-70
2021/10/09 04:50:06;;;;;;;0.40;0.30;;;;;;;5.77;95.55;102794.78;5075267;28;20461;-70
2021/10/09 04:52:33;;;;;;;0.40;0.30;;;;;;;5.82;95.78;102797.66;5075224;28;20449;-70
2021/10/09 04:54:59;;;;;;;0.40;0.30;;;;;;;5.87;95.93;102796.19;5075088;28;20873;-70
2021/10/09 04:57:26;;;;;;;0.40;0.20;;;;;;;5.89;95.75;102794.97;5075081;28;20961;-70
2021/10/09 04:59:53;;;;;;;0.40;0.30;;;;;;;5.93;95.80;102795.34;5075003;28;20478;-70
2021/10/09 05:02:21;;;;;;;0.40;0.30;;;;;;;6.01;95.32;102808.56;5074642;28;20456;-70
2021/10/09 05:04:47;;;;;;;0.40;0.30;;;;;;;6.00;95.83;102802.38;5075031;28;20833;-70
2021/10/09 05:07:14;;;;;;;0.40;0.30;;;;;;;6.01;96.12;102801.31;5074906;28;20437;-70
2021/10/09 05:09:42;;;;;;;0.40;0.30;;;;;;;6.05;96.21;102807.09;5074797;28;20461;-69
2021/10/09 05:12:08;;;;;;;0.40;0.30;;;;;;;6.05;96.17;102807.91;5075882;28;20492;-70
2021/10/09 05:14:35;;;;;;;0.40;0.30;;;;;;;6.09;96.04;102811.00;5074682;28;20488;-70
2021/10/09 05:17:02;;;;;;;0.40;0.30;;;;;;;6.09;96.12;102807.50;5074715;28;20475;-70
2021/10/09 05:19:29;;;;;;;0.40;0.30;;;;;;;6.08;95.99;102809.38;5074297;28;20978;-69
2021/10/09 05:21:56;;;;;;;0.50;0.30;;;;;;;6.01;96.02;102816.63;5074699;28;20808;-69
2021/10/09 05:24:22;;;;;;;0.40;0.27;;;;;;;5.95;95.51;102818.31;5074232;28;20451;-70
2021/10/09 05:26:49;;;;;;;0.40;0.30;;;;;;;5.96;94.60;102824.53;5074544;28;20446;-72
2021/10/09 05:29:16;;;;;;;0.40;0.27;;;;;;;5.87;94.17;102831.16;5074622;28;20461;-68
2021/10/09 05:31:43;;;;;;;0.40;0.20;;;;;;;5.84;93.68;102832.41;5074497;28;20540;-69
2021/10/09 05:34:10;;;;;;;0.40;0.30;;;;;;;5.82;93.79;102835.31;5074343;28;20488;-68
2021/10/09 05:36:38;;;;;;;0.40;0.27;;;;;;;5.91;93.21;102843.16;5074580;28;20532;-69
2021/10/09 05:39:05;;;;;;;0.60;0.57;;;;;;;5.84;93.64;102843.16;5074275;28;20457;-69
2021/10/09 05:41:31;;;;;;;2.97;2.77;;;;;;;5.77;93.41;102853.13;5073949;28;20897;-68
2021/10/09 05:43:58;;;;;;;0.40;0.20;;;;;;;5.90;93.34;102850.38;5074514;28;20437;-68
2021/10/09 05:46:24;;;;;;;3.23;3.07;;;;;;;5.94;93.23;102850.81;5074165;28;20433;-68
2021/10/09 05:48:52;;;;;;;0.40;0.30;;;;;;;6.00;93.21;102847.28;5073751;28;21250;-68
2021/10/09 05:51:21;;;;;;;0.40;0.30;;;;;;;6.08;93.67;102849.72;5074094;28;20446;-69
2021/10/09 05:56:48;;;;;;;0.40;0.30;;;;;;;6.11;94.88;102859.19;5057854;28;20556;-68
2021/10/09 06:02:17;;;;;;;0.40;0.30;;;;;;;6.12;95.05;102855.50;5048031;28;20444;-68
2021/10/09 06:32:25;;;;;;;0.40;0.30;;;;;;;6.47;93.99;102889.03;5072774;28;20472;-71
2021/10/09 06:38:24;;;;;;;0.40;0.30;;;;;;;6.63;93.57;102892.25;5052129;28;20945;-71
2021/10/09 06:44:04;;;;;;;1.50;1.40;;;;;;;6.76;92.83;102901.06;5073340;28;20800;-71
2021/10/09 06:49:35;;;;;;;0.40;0.30;;;;;;;6.95;92.36;102901.13;5073193;28;20456;-71
2021/10/09 07:00:16;;;;;;;0.40;0.30;;;;;;;7.26;91.85;102911.00;5072856;28;20826;-71
2021/10/09 07:02:43;;;;;;;0.40;0.20;;;;;;;7.38;91.76;102913.81;5072951;28;20438;-71
2021/10/09 07:05:11;;;;;;;0.40;0.30;;;;;;;7.46;91.03;102908.16;5073035;28;20437;-71
2021/10/09 07:07:40;;;;;;;0.40;0.30;;;;;;;7.53;90.68;102912.44;5072921;28;20437;-70
2021/10/09 07:10:08;;;;;;;0.53;0.53;;;;;;;7.61;90.69;102918.56;5072919;28;20515;-70
2021/10/09 07:12:35;;;;;;;0.40;0.30;;;;;;;7.69;90.46;102920.97;5072539;28;20947;-70
2021/10/09 07:15:01;;;;;;;2.30;2.20;;;;;;;7.74;90.49;102918.44;5072811;28;20488;-70
2021/10/09 07:17:29;;;;;;;0.40;0.30;;;;;;;7.79;89.90;102916.72;5072649;28;20935;-70
2021/10/09 07:19:56;;;;;;;0.40;0.30;;;;;;;7.88;89.16;102914.56;5072515;28;20471;-70
2021/10/09 07:22:23;;;;;;;0.40;0.30;;;;;;;7.95;88.09;102919.88;5072671;28;20452;-69
2021/10/09 07:24:49;;;;;;;0.40;0.30;;;;;;;8.05;86.68;102922.84;5075526;28;20448;-69
2021/10/09 07:27:16;;;;;;;0.40;0.30;;;;;;;8.10;84.93;102920.28;5076753;28;20853;-69
2021/10/09 07:29:42;;;;;;;0.40;0.30;;;;;;;8.11;84.05;102924.66;5076366;28;20556;-69
2021/10/09 07:32:09;;;;;;;0.40;0.37;;;;;;;8.19;83.33;102926.19;5076384;28;20799;-69
2021/10/09 07:34:38;;;;;;;0.40;0.30;;;;;;;8.21;82.88;102924.94;5076522;28;20485;-69
2021/10/09 07:37:04;;;;;;;2.97;2.83;;;;;;;8.23;82.44;102917.41;5076562;28;20809;-69
2021/10/09 07:39:32;;;;;;;0.40;0.30;;;;;;;8.28;82.54;102920.28;5076491;28;20461;-69
2021/10/09 07:41:58;;;;;;;0.50;0.50;;;;;;;8.33;81.29;102917.72;5076519;28;20449;-69
2021/10/09 07:44:25;;;;;;;0.40;0.20;;;;;;;8.42;81.14;102914.75;5076543;28;20464;-70
2021/10/09 07:46:52;;;;;;;1.90;0.90;;;;;;;8.48;81.01;102919.22;5076508;28;20441;-70
2021/10/09 07:49:18;;;;;;;2.00;1.90;;;;;;;8.56;81.34;102916.19;5075990;28;20824;-70
2021/10/09 07:51:46;;;;;;;0.40;0.30;;;;;;;8.66;80.43;102918.34;5076309;28;20800;-69
2021/10/09 07:54:13;;;;;;;0.40;0.30;;;;;;;8.76;79.99;102910.50;5076256;28;20485;-69
2021/10/09 07:56:40;;;;;;;1.40;1.33;;;;;;;8.87;79.94;102911.59;5075848;28;20480;-69
2021/10/09 07:59:06;;;;;;;0.40;0.30;;;;;;;8.98;79.17;102919.69;5076416;28;20461;-70
2021/10/09 08:01:33;;;;;;;0.40;0.30;;;;;;;9.09;78.99;102918.09;5076137;28;20441;-71
2021/10/09 08:04:00;;;;;;;0.40;0.30;;;;;;;9.13;77.41;102918.44;5076123;28;20433;-71
2021/10/09 08:06:26;;;;;;;0.50;0.30;;;;;;;9.24;76.85;102913.03;5076326;28;20433;-71
2021/10/09 08:08:54;;;;;;;0.40;0.30;;;;;;;9.37;77.15;102922.78;5075955;28;20465;-71
2021/10/09 08:11:20;;;;;;;0.40;0.30;;;;;;;9.47;76.98;102919.50;5076009;28;20445;-71
2021/10/09 08:13:47;;;;;;;0.40;0.30;;;;;;;9.51;77.36;102915.25;5075856;28;20442;-71
2021/10/09 08:16:13;;;;;;;0.40;0.30;;;;;;;9.63;76.52;102924.19;5075611;28;20438;-71
2021/10/09 08:18:40;;;;;;;0.40;0.30;;;;;;;9.70;75.55;102919.50;5075799;28;20457;-70
2021/10/09 08:21:07;;;;;;;0.40;0.30;;;;;;;9.79;74.93;102919.97;5075841;28;20445;-70
2021/10/09 08:23:39;;;;;;;1.67;1.57;;;;;;;9.84;74.69;102922.78;5075625;28;20461;-70
2021/10/09 08:26:33;;;;;;;0.40;0.30;;;;;;;9.93;72.89;102915.94;5076033;28;20425;-70
2021/10/09 08:38:45;;;;;;;0.40;0.30;;;;;;;10.16;66.97;102927.75;5074516;28;20429;-70
2021/10/09 08:40:10;;;;;;;0.40;0.30;;;;;;;10.26;67.71;102938.81;5074988;28;20548;-70
2021/10/09 08:42:38;;;;;;;0.40;0.30;;;;;;;10.37;68.89;102937.16;5075378;28;20473;-70
2021/10/09 08:45:05;;;;;;;0.40;0.30;;;;;;;10.50;68.99;102943.09;5075407;28;20445;-70
2021/10/09 08:47:34;;;;;;;0.40;0.30;;;;;;;10.61;68.94;102941.38;5075170;28;20429;-70
2021/10/09 08:50:01;;;;;;;0.40;0.30;;;;;;;10.72;68.34;102950.53;5074900;28;21021;-70
2021/10/09 08:52:29;;;;;;;1.33;1.23;;;;;;;10.72;67.13;102953.25;5075125;28;20836;-70
2021/10/09 08:54:56;;;;;;;0.40;0.30;;;;;;;10.77;66.18;102948.72;5075034;28;20481;-70
2021/10/09 08:57:25;;;;;;;0.40;0.30;;;;;;;10.86;65.97;102949.97;5075132;28;20477;-70
2021/10/09 08:59:57;;;;;;;0.40;0.30;;;;;;;10.92;65.11;102952.78;5074891;28;20546;-70
2021/10/09 09:02:26;;;;;;;0.50;0.50;;;;;;;11.00;64.71;102949.66;5074786;28;20465;-70
2021/10/09 09:05:04;;;;;;;0.40;0.30;;;;;;;11.13;63.25;102951.25;5074999;28;20469;-70
2021/10/09 09:33:07;;;;;;;0.40;0.30;;;;;;;11.84;58.75;102939.56;5074224;28;20905;-70
2021/10/09 09:41:13;;;;;;;0.40;0.30;;;;;;;12.00;58.83;102937.88;5074534;28;20426;-70
2021/10/09 09:43:41;;;;;;;0.40;0.30;;;;;;;12.05;58.61;102937.13;5074279;28;20465;-70
2021/10/09 09:46:12;;;;;;;0.40;0.30;;;;;;;11.99;56.97;102933.50;5074110;28;20437;-70
2021/10/09 09:48:41;;;;;;;2.03;1.90;;;;;;;12.05;57.95;102937.94;5072965;28;20457;-70
2021/10/09 09:51:09;;;;;;;0.40;0.30;;;;;;;12.23;57.61;102927.84;5074009;28;20437;-70
2021/10/09 09:53:36;;;;;;;0.40;0.30;;;;;;;12.35;57.02;102923.91;5073901;28;20445;-70
2021/10/09 09:56:02;;;;;;;0.40;0.30;;;;;;;12.41;57.04;102921.25;5073687;28;20481;-70
2021/10/09 09:58:34;;;;;;;0.93;0.93;;;;;;;12.55;56.29;102919.75;5073497;28;20460;-70
2021/10/09 10:01:01;;;;;;;0.40;0.20;;;;;;;12.64;56.02;102923.63;5073814;28;20441;-70
2021/10/09 10:03:30;;;;;;;0.40;0.30;;;;;;;12.75;54.37;102919.94;5073869;28;20441;-70
2021/10/09 10:06:00;;;;;;;0.50;0.40;;;;;;;12.89;54.28;102925.78;5073791;28;20445;-71
2021/10/09 10:08:27;;;;;;;0.40;0.23;;;;;;;12.98;53.83;102923.41;5073740;28;20539;-68
2021/10/09 10:10:55;;;;;;;0.40;0.30;;;;;;;13.06;53.29;102925.66;5073955;28;20479;-69
2021/10/09 10:13:24;;;;;;;0.40;0.30;;;;;;;13.05;52.06;102922.09;5073919;28;20450;-69
2021/10/09 10:15:53;;;;;;;0.40;0.30;;;;;;;13.14;53.01;102915.09;5073283;28;21025;-68
2021/10/09 10:18:50;;;;;;;0.40;0.30;;;;;;;13.16;52.24;102914.03;5073426;28;20545;-69
2021/10/09 10:21:19;;;;;;;0.40;0.30;;;;;;;13.21;53.44;102906.72;5073472;28;20437;-69
2021/10/09 10:23:47;;;;;;;0.50;0.50;;;;;;;13.37;53.19;102910.41;5073215;28;20456;-68
2021/10/09 10:26:28;;;;;;;0.40;0.27;;;;;;;13.34;51.50;102909.00;5073549;28;20445;-69
2021/10/09 10:29:24;;;;;;;0.40;0.30;;;;;;;13.55;52.54;102909.16;5073294;28;20469;-68
2021/10/09 10:32:13;;;;;;;0.40;0.20;;;;;;;13.70;51.55;102909.22;5031071;28;20419;-68
2021/10/09 10:34:41;;;;;;;0.40;0.30;;;;;;;13.79;51.30;102899.44;5069565;28;20508;-68
2021/10/09 10:37:33;;;;;;;0.40;0.20;;;;;;;13.93;51.04;102893.50;5073339;28;20445;-69
2021/10/09 10:40:00;;;;;;;0.40;0.30;;;;;;;14.08;50.16;102893.59;5073551;28;20461;-68
2021/10/09 10:42:28;;;;;;;0.40;0.30;;;;;;;14.21;50.47;102890.34;5072751;28;20935;-69
2021/10/09 10:45:01;;;;;;;0.40;0.20;;;;;;;14.36;50.24;102889.56;5073182;28;20445;-69
2021/10/09 10:47:49;;;;;;;0.40;0.30;;;;;;;14.48;48.72;102894.75;5073244;28;20426;-69
2021/10/09 10:50:58;;;;;;;0.40;0.30;;;;;;;14.63;50.77;102889.34;5073207;28;20560;-69
2021/10/09 10:53:58;;;;;;;0.40;0.30;;;;;;;14.79;48.96;102899.19;5073157;28;20421;-74
2021/10/09 10:56:26;;;;;;;0.40;0.30;;;;;;;15.00;50.08;102894.53;5072578;28;20520;-70
2021/10/09 10:59:27;;;;;;;0.40;0.23;;;;;;;15.19;48.64;102894.78;5072387;28;21006;-71
2021/10/09 11:02:08;;;;;;;0.97;0.97;;;;;;;15.40;48.94;102892.81;5073081;28;20449;-71
2021/10/09 11:04:35;;;;;;;0.40;0.30;;;;;;;15.70;47.38;102893.88;5073147;28;20417;-71
2021/10/09 11:07:03;;;;;;;0.40;0.30;;;;;;;16.39;46.38;102887.50;5073207;28;20445;-71
2021/10/09 11:09:29;;;;;;;0.40;0.20;;;;;;;17.61;45.35;102888.31;5073147;28;20503;-70
2021/10/09 11:11:56;;;;;;;0.40;0.30;;;;;;;18.68;41.96;102889.59;5074452;28;20984;-71
2021/10/09 11:14:23;;;;;;;0.40;0.30;;;;;;;19.73;40.35;102889.91;5072949;28;20442;-71
2021/10/09 11:16:49;;;;;;;0.40;0.30;;;;;;;20.57;38.75;102894.13;5073017;28;20445;-71
2021/10/09 11:19:17;;;;;;;0.40;0.23;;;;;;;21.22;36.79;102887.25;5072921;28;20461;-71
2021/10/09 11:21:53;;;;;;;0.40;0.30;;;;;;;22.20;36.06;102897.13;5072937;28;20548;-71
2021/10/09 11:24:20;;;;;;;0.40;0.30;;;;;;;22.61;35.28;102896.63;5072602;28;20530;-71
2021/10/09 11:26:52;;;;;;;0.40;0.30;;;;;;;23.20;34.64;102896.88;5072900;28;20441;-71
2021/10/09 11:29:19;;;;;;;0.40;0.30;;;;;;;23.71;34.13;102894.22;5072859;28;20979;-71
2021/10/09 11:31:46;;;;;;;0.40;0.30;;;;;;;24.20;33.04;102898.09;5072884;28;20441;-71
2021/10/09 11:34:12;;;;;;;0.40;0.30;;;;;;;24.32;31.43;102887.09;5072736;28;20446;-71
2021/10/09 11:36:40;;;;;;;0.40;0.30;;;;;;;24.25;31.14;102883.25;5072758;28;20485;-71
2021/10/09 11:39:12;;;;;;;0.40;0.30;;;;;;;24.30;32.08;102892.16;5072731;28;20456;-71
2021/10/09 11:41:40;;;;;;;0.40;0.30;;;;;;;24.54;32.81;102885.16;5072508;28;20457;-71
2021/10/09 11:44:19;;;;;;;0.40;0.40;;;;;;;24.59;31.95;102884.94;5072714;28;20454;-71
2021/10/09 11:46:53;;;;;;;0.40;0.30;;;;;;;24.91;31.79;102886.06;5072909;28;20445;-71
2021/10/09 11:53:36;;;;;;;0.40;0.30;;;;;;;25.79;30.05;102887.44;5030496;28;20438;-72
2021/10/09 11:55:32;;;;;;;0.40;0.30;;;;;;;25.82;30.51;102881.19;5072158;28;20472;-71
2021/10/09 11:58:02;;;;;;;0.40;0.30;;;;;;;25.61;30.52;102874.91;5072910;28;20442;-72
2021/10/09 12:00:41;;;;;;;0.50;0.50;;;;;;;25.88;30.38;102874.22;5072548;28;20468;-72
2021/10/09 12:03:35;;;;;;;0.40;0.40;;;;;;;26.51;29.43;102881.22;5072509;28;20441;-71
2021/10/09 12:06:07;;;;;;;0.40;0.30;;;;;;;26.97;28.84;102878.88;5072571;28;20422;-71
2021/10/09 12:08:41;;;;;;;0.40;0.30;;;;;;;27.02;29.10;102878.63;5072542;28;20484;-72
2021/10/09 12:11:09;;;;;;;0.40;0.30;;;;;;;26.16;28.11;102870.66;5073692;28;20511;-72
2021/10/09 12:13:48;;;;;;;0.53;0.50;;;;;;;26.34;28.84;102873.94;5075679;28;20989;-71
2021/10/09 12:16:15;;;;;;;3.67;1.53;;;;;;;26.36;28.25;102864.13;5075975;28;20465;-72
2021/10/09 12:18:48;;;;;;;0.40;0.30;;;;;;;26.38;28.13;102863.75;5075812;28;20461;-72
2021/10/09 12:21:15;;;;;;;0.40;0.30;;;;;;;26.12;27.81;102861.44;5075852;28;20468;-72
2021/10/09 12:23:43;;;;;;;0.40;0.30;;;;;;;26.30;27.63;102859.19;5075749;28;20489;-72
2021/10/09 12:26:12;;;;;;;0.40;0.30;;;;;;;26.12;28.82;102855.88;5075806;28;20851;-72
2021/10/09 12:29:10;;;;;;;0.40;0.30;;;;;;;26.29;28.40;102855.56;5075602;28;20484;-71
2021/10/09 12:31:40;;;;;;;0.40;0.30;;;;;;;26.63;28.36;102856.13;5075689;28;20442;-72
2021/10/09 12:34:26;;;;;;;0.40;0.30;;;;;;;26.97;28.33;102851.88;5075610;28;20447;-70
2021/10/09 12:37:15;;;;;;;0.40;0.30;;;;;;;27.09;27.49;102856.56;5075541;28;20836;-74
2021/10/09 12:39:44;;;;;;;0.40;0.30;;;;;;;27.01;27.40;102854.75;5075472;28;20473;-70
2021/10/09 12:42:13;;;;;;;0.40;0.20;;;;;;;26.98;27.85;102847.91;5075475;28;20441;-72
2021/10/09 12:44:40;;;;;;;0.40;0.30;;;;;;;26.95;27.21;102842.25;5075419;28;20532;-72
2021/10/09 12:47:06;;;;;;;0.40;0.30;;;;;;;27.00;27.69;102853.13;5075336;28;20433;-72
2021/10/09 12:49:33;;;;;;;0.40;0.30;;;;;;;26.72;27.29;102844.84;5075331;28;20466;-72
2021/10/09 12:52:00;;;;;;;0.40;0.30;;;;;;;26.77;28.21;102845.38;5075239;28;20429;-72
2021/10/09 12:54:27;;;;;;;0.40;0.30;;;;;;;26.86;27.34;102843.25;5075250;28;20448;-72
2021/10/09 12:56:56;;;;;;;0.40;0.30;;;;;;;27.11;27.22;102843.91;5074992;28;20484;-72
2021/10/09 12:59:23;;;;;;;0.40;0.30;;;;;;;27.23;26.95;102833.84;5075085;28;20514;-72
2021/10/09 13:01:49;;;;;;;0.40;0.30;;;;;;;27.25;27.32;102835.09;5075092;28;20456;-72
2021/10/09 13:04:15;;;;;;;0.40;0.30;;;;;;;27.41;26.68;102829.50;5074718;28;20453;-72
2021/10/09 13:06:42;;;;;;;0.40;0.30;;;;;;;27.64;27.33;102830.44;5075054;28;20463;-72
2021/10/09 13:09:08;;;;;;;0.50;0.50;;;;;;;27.49;28.08;102820.13;5074601;28;21024;-71
2021/10/09 13:11:43;;;;;;;0.40;0.30;;;;;;;27.38;27.02;102822.69;5074918;28;20448;-72
2021/10/09 13:14:11;;;;;;;0.40;0.23;;;;;;;27.27;27.25;102821.63;5074931;28;20461;-72
2021/10/09 13:16:38;;;;;;;0.40;0.27;;;;;;;27.57;26.96;102824.69;5074466;28;20480;-72
2021/10/09 13:19:05;;;;;;;0.40;0.30;;;;;;;27.51;26.97;102820.59;5074720;28;20461;-72
2021/10/09 13:21:31;;;;;;;0.40;0.20;;;;;;;26.94;26.99;102808.06;5074394;28;20499;-72
2021/10/09 13:23:58;;;;;;;0.50;0.40;;;;;;;26.90;27.60;102809.94;5074288;28;20460;-71
2021/10/09 13:26:24;;;;;;;0.40;0.30;;;;;;;26.86;28.28;102814.63;5074638;28;20449;-72